createdAt,value
2023-01-29T00:02:15.436Z,19.04
2023-01-29T00:05:27.988Z,18.06
2023-01-29T00:08:36.478Z,20.25
2023-01-29T00:11:45.913Z,21.78
2023-01-29T00:14:51.759Z,20.69
2023-01-29T00:17:58.264Z,23.44
2023-01-29T00:21:04.043Z,19.59
2023-01-29T00:24:11.363Z,19.05
2023-01-29T00:27:19.741Z,17.96
2023-01-29T00:30:28.947Z,17.49
2023-01-29T00:33:34.761Z,17.31
2023-01-29T00:36:41.540Z,17.79
2023-01-29T00:39:48.428Z,17.55
2023-01-29T00:43:10.108Z,17.69
2023-01-29T00:46:17.560Z,17.50
2023-01-29T00:49:24.669Z,18.14
2023-01-29T00:52:31.193Z,18.07
2023-01-29T00:55:37.867Z,17.18
2023-01-29T00:58:46.249Z,17.43
2023-01-29T01:02:05.303Z,17.27
2023-01-29T01:05:18.139Z,17.31
2023-01-29T01:08:37.289Z,17.81
2023-01-29T01:11:43.035Z,17.33
2023-01-29T01:14:52.654Z,17.14
2023-01-29T01:18:01.465Z,16.40
2023-01-29T01:21:09.238Z,16.99
2023-01-29T01:24:15.632Z,16.06
2023-01-29T01:27:22.877Z,16.46
2023-01-29T01:30:33.201Z,16.51
2023-01-29T01:33:40.693Z,16.21
2023-01-29T01:36:46.490Z,14.63
2023-01-29T01:39:57.964Z,14.68
2023-01-29T01:43:05.443Z,12.67
2023-01-29T01:46:15.226Z,11.23
2023-01-29T01:49:24.506Z,11.50
2023-01-29T01:52:35.259Z,13.58
2023-01-29T01:55:51.749Z,13.18
2023-01-29T01:59:02.368Z,12.64
2023-01-29T02:02:23.829Z,11.49
2023-01-29T02:05:46.095Z,13.29
2023-01-29T02:09:13.921Z,13.83
2023-01-29T02:12:22.865Z,12.96
2023-01-29T02:15:28.875Z,12.25
2023-01-29T02:18:39.673Z,13.20
2023-01-29T02:22:25.932Z,13.10
2023-01-29T02:26:13.456Z,13.03
2023-01-29T02:29:35.911Z,13.47
2023-01-29T02:32:58.872Z,12.95
2023-01-29T02:36:26.035Z,14.55
2023-01-29T02:39:42.444Z,20.58
2023-01-29T02:43:06.542Z,19.97
2023-01-29T02:46:31.831Z,22.99
2023-01-29T02:49:50.372Z,14.75
2023-01-29T02:53:09.597Z,13.82
2023-01-29T02:56:29.687Z,13.95
2023-01-29T02:59:48.027Z,10.83
2023-01-29T03:03:06.857Z,11.84
2023-01-29T03:06:24.399Z,11.85
2023-01-29T03:09:42.584Z,11.87
2023-01-29T03:12:59.954Z,10.27
2023-01-29T03:16:19.230Z,10.71
2023-01-29T03:19:40.010Z,12.62
2023-01-29T03:23:07.949Z,13.26
2023-01-29T03:26:33.728Z,11.20
2023-01-29T03:29:58.847Z,10.71
2023-01-29T03:33:23.766Z,10.77
2023-01-29T03:36:45.840Z,10.77
2023-01-29T03:39:55.752Z,11.24
2023-01-29T03:43:14.882Z,12.41
2023-01-29T03:46:34.332Z,11.39
2023-01-29T03:50:00.997Z,11.26
2023-01-29T03:53:24.074Z,11.15
2023-01-29T03:56:52.736Z,10.07
2023-01-29T04:00:17.495Z,10.22
2023-01-29T04:03:43.083Z,10.53
2023-01-29T04:06:56.916Z,10.80
2023-01-29T04:10:15.229Z,11.36
2023-01-29T04:13:22.828Z,8.95
2023-01-29T04:16:39.227Z,8.99
2023-01-29T04:19:54.855Z,7.92
2023-01-29T04:23:01.491Z,8.72
2023-01-29T04:26:42.139Z,9.38
2023-01-29T04:30:13.953Z,9.08
2023-01-29T04:33:40.209Z,9.64
2023-01-29T04:37:05.478Z,9.13
2023-01-29T04:40:27.219Z,8.59
2023-01-29T04:43:48.940Z,8.92
2023-01-29T04:47:15.829Z,9.18
2023-01-29T04:50:37.182Z,10.56
2023-01-29T04:54:03.096Z,10.75
2023-01-29T04:57:25.702Z,10.42
2023-01-29T05:00:45.299Z,11.77
2023-01-29T05:03:58.189Z,11.52
2023-01-29T05:07:09.969Z,11.60
2023-01-29T05:10:29.280Z,11.77
2023-01-29T05:13:45.103Z,12.32
2023-01-29T05:17:01.405Z,12.37
2023-01-29T05:20:09.071Z,15.78
2023-01-29T05:23:21.286Z,13.82
2023-01-29T05:26:39.857Z,11.42
2023-01-29T05:29:50.299Z,10.59
2023-01-29T05:32:58.658Z,11.14
2023-01-29T05:36:06.943Z,11.84
2023-01-29T05:39:12.852Z,12.16
2023-01-29T05:42:22.725Z,12.26
2023-01-29T05:45:29.050Z,12.74
2023-01-29T05:48:38.360Z,14.13
2023-01-29T05:51:44.306Z,17.52
2023-01-29T05:54:50.870Z,12.34
2023-01-29T05:57:56.635Z,13.11
2023-01-29T06:01:13.338Z,12.36
2023-01-29T06:04:22.205Z,13.11
2023-01-29T06:07:29.802Z,12.51
2023-01-29T06:10:36.276Z,13.51
2023-01-29T06:13:43.627Z,11.77
2023-01-29T06:16:49.559Z,12.02
2023-01-29T06:19:58.965Z,11.85
2023-01-29T06:23:05.151Z,12.42
2023-01-29T06:26:17.302Z,13.08
2023-01-29T06:29:23.086Z,16.61
2023-01-29T06:32:30.632Z,13.07
2023-01-29T06:35:39.145Z,14.62
2023-01-29T06:38:45.771Z,15.42
2023-01-29T06:41:51.767Z,16.91
2023-01-29T06:44:58.419Z,16.39
2023-01-29T06:48:04.124Z,15.63
2023-01-29T06:51:14.857Z,15.72
2023-01-29T06:54:20.650Z,25.74
2023-01-29T06:57:27.638Z,30.08
2023-01-29T07:00:33.645Z,34.71
2023-01-29T07:03:41.811Z,39.13
2023-01-29T07:06:50.250Z,39.93
2023-01-29T07:09:56.747Z,23.88
2023-01-29T07:13:03.175Z,29.43
2023-01-29T07:16:10.540Z,18.13
2023-01-29T07:19:16.549Z,19.46
2023-01-29T07:22:25.844Z,25.43
2023-01-29T07:25:31.713Z,23.08
2023-01-29T07:28:40.849Z,26.29
2023-01-29T07:31:46.855Z,26.04
2023-01-29T07:34:53.519Z,26.06
2023-01-29T07:38:02.107Z,25.11
2023-01-29T07:41:09.315Z,25.60
2023-01-29T07:44:18.273Z,29.35
2023-01-29T07:47:24.880Z,28.08
2023-01-29T07:50:31.404Z,24.76
2023-01-29T07:53:40.760Z,37.49
2023-01-29T07:56:46.610Z,30.88
2023-01-29T07:59:53.339Z,32.70
2023-01-29T08:03:07.026Z,30.89
2023-01-29T08:06:13.861Z,25.26
2023-01-29T08:09:22.339Z,20.02
2023-01-29T08:12:29.064Z,18.77
2023-01-29T08:15:39.215Z,15.50
2023-01-29T08:18:47.967Z,15.81
2023-01-29T08:21:53.709Z,14.87
2023-01-29T08:25:08.318Z,19.55
2023-01-29T08:28:14.944Z,14.68
2023-01-29T08:31:23.422Z,13.96
2023-01-29T08:34:29.272Z,13.32
2023-01-29T08:37:36.207Z,16.75
2023-01-29T08:40:47.415Z,15.58
2023-01-29T08:43:53.953Z,15.40
2023-01-29T08:46:59.785Z,17.52
2023-01-29T08:50:06.542Z,15.48
2023-01-29T08:53:13.146Z,15.07
2023-01-29T08:56:22.340Z,15.01
2023-01-29T08:59:28.283Z,17.49
2023-01-29T09:02:35.039Z,17.38
2023-01-29T09:05:43.310Z,17.05
2023-01-29T09:08:51.332Z,17.10
2023-01-29T09:11:59.923Z,20.57
2023-01-29T09:15:10.661Z,33.93
2023-01-29T09:18:25.058Z,24.76
2023-01-29T09:21:34.801Z,23.58
2023-01-29T09:24:40.626Z,23.33
2023-01-29T09:27:49.751Z,21.84
2023-01-29T09:30:55.741Z,22.85
2023-01-29T09:34:02.351Z,20.27
2023-01-29T09:37:08.323Z,20.71
2023-01-29T09:40:29.420Z,19.48
2023-01-29T09:43:52.203Z,21.52
2023-01-29T09:47:05.281Z,22.02
2023-01-29T09:50:21.359Z,29.52
2023-01-29T09:53:42.494Z,21.42
2023-01-29T09:56:51.374Z,31.66
2023-01-29T10:00:03.042Z,22.93
2023-01-29T10:03:38.990Z,20.56
2023-01-29T10:07:10.529Z,14.80
2023-01-29T10:10:46.494Z,18.35
2023-01-29T10:14:14.702Z,15.62
2023-01-29T10:17:53.319Z,14.42
2023-01-29T10:21:27.790Z,16.24
2023-01-29T10:24:44.724Z,17.40
2023-01-29T10:27:58.172Z,16.95
2023-01-29T10:31:18.812Z,22.13
2023-01-29T10:34:46.092Z,18.03
2023-01-29T10:37:56.885Z,18.07
2023-01-29T10:41:52.536Z,19.50
2023-01-29T10:45:29.141Z,18.61
2023-01-29T10:48:58.297Z,19.74
2023-01-29T10:52:29.269Z,29.41
2023-01-29T10:55:54.141Z,29.95
2023-01-29T10:59:08.105Z,25.46
2023-01-29T11:02:21.480Z,26.85
2023-01-29T11:05:37.550Z,27.26
2023-01-29T11:08:59.049Z,32.46
2023-01-29T11:12:13.633Z,30.28
2023-01-29T11:15:29.132Z,29.92
2023-01-29T11:18:57.733Z,32.56
2023-01-29T11:22:05.089Z,32.38
2023-01-29T11:25:21.764Z,31.11
2023-01-29T11:28:44.275Z,30.69
2023-01-29T11:31:51.256Z,28.14
2023-01-29T11:35:04.465Z,26.40
2023-01-29T11:38:22.527Z,25.20
2023-01-29T11:41:31.744Z,21.83
2023-01-29T11:44:44.991Z,20.61
2023-01-29T11:47:55.745Z,20.00
2023-01-29T11:51:06.481Z,18.98
2023-01-29T11:54:22.724Z,20.50
2023-01-29T11:57:38.887Z,19.43
2023-01-29T12:00:55.504Z,50.34
2023-01-29T12:04:02.877Z,128.15
2023-01-29T12:07:18.948Z,68.62
2023-01-29T12:10:37.320Z,54.57
2023-01-29T12:13:47.267Z,18.92
2023-01-29T12:17:04.413Z,19.92
2023-01-29T12:20:21.403Z,25.41
2023-01-29T12:23:41.848Z,24.00
2023-01-29T12:26:58.186Z,26.46
2023-01-29T12:30:22.577Z,22.21
2023-01-29T12:33:42.411Z,23.40
2023-01-29T12:36:59.639Z,21.97
2023-01-29T12:40:13.891Z,45.58
2023-01-29T12:43:25.453Z,23.57
2023-01-29T12:46:46.655Z,19.90
2023-01-29T12:50:04.829Z,21.15
2023-01-29T12:53:29.785Z,18.78
2023-01-29T12:56:42.493Z,17.55
2023-01-29T12:59:58.244Z,20.11
2023-01-29T13:03:24.081Z,17.67
2023-01-29T13:06:42.594Z,17.63
2023-01-29T13:10:00.439Z,20.17
2023-01-29T13:13:19.463Z,18.35
2023-01-29T13:16:34.626Z,19.87
2023-01-29T13:19:53.317Z,16.53
2023-01-29T13:23:13.307Z,28.54
2023-01-29T13:26:22.897Z,22.32
2023-01-29T13:29:33.292Z,15.79
2023-01-29T13:32:40.403Z,18.56
2023-01-29T13:35:50.135Z,16.32
2023-01-29T13:39:09.191Z,18.43
2023-01-29T13:42:24.146Z,19.07
2023-01-29T13:45:45.188Z,22.19
2023-01-29T13:48:58.362Z,18.53
2023-01-29T13:52:30.974Z,19.99
2023-01-29T13:55:40.690Z,19.08
2023-01-29T13:58:59.167Z,21.20
2023-01-29T14:02:22.135Z,18.04
2023-01-29T14:05:45.189Z,18.44
2023-01-29T14:08:53.635Z,25.30
2023-01-29T14:12:00.330Z,22.09
2023-01-29T14:15:30.862Z,23.44
2023-01-29T14:18:48.067Z,22.35
2023-01-29T14:21:54.437Z,22.42
2023-01-29T14:25:08.954Z,22.97
2023-01-29T14:28:33.889Z,26.79
2023-01-29T14:31:46.871Z,27.09
2023-01-29T14:35:02.773Z,23.86
2023-01-29T14:38:17.151Z,22.31
2023-01-29T14:41:34.392Z,23.07
2023-01-29T14:45:13.102Z,30.13
2023-01-29T14:48:41.754Z,24.95
2023-01-29T14:51:50.076Z,20.61
2023-01-29T14:55:04.548Z,22.48
2023-01-29T14:58:22.155Z,22.10
2023-01-29T15:01:37.221Z,22.59
2023-01-29T15:04:52.993Z,24.72
2023-01-29T15:08:09.468Z,30.72
2023-01-29T15:11:36.590Z,29.12
2023-01-29T15:14:58.748Z,25.93
2023-01-29T15:18:17.737Z,26.68
2023-01-29T15:21:23.941Z,27.04
2023-01-29T15:24:31.074Z,29.38
2023-01-29T15:27:38.321Z,30.12
2023-01-29T15:30:49.274Z,28.33
2023-01-29T15:34:00.443Z,27.11
2023-01-29T15:37:06.974Z,27.16
2023-01-29T15:40:22.092Z,30.11
2023-01-29T15:43:32.277Z,33.62
2023-01-29T15:46:45.594Z,36.00
2023-01-29T15:49:52.797Z,38.18
2023-01-29T15:53:15.239Z,38.67
2023-01-29T15:56:29.031Z,36.62
2023-01-29T15:59:51.858Z,36.89
2023-01-29T16:03:03.151Z,33.26
2023-01-29T16:06:12.285Z,31.56
2023-01-29T16:09:26.339Z,33.11
2023-01-29T16:12:32.371Z,32.96
2023-01-29T16:15:57.230Z,35.04
2023-01-29T16:19:17.329Z,34.21
2023-01-29T16:22:25.483Z,37.18
2023-01-29T16:25:34.180Z,33.28
2023-01-29T16:28:44.782Z,31.38
2023-01-29T16:32:00.666Z,29.59
2023-01-29T16:35:18.594Z,34.93
2023-01-29T16:38:35.311Z,41.64
2023-01-29T16:41:43.570Z,44.22
2023-01-29T16:44:54.467Z,45.72
2023-01-29T16:48:22.033Z,44.74
2023-01-29T16:51:34.668Z,51.75
2023-01-29T16:54:46.271Z,48.33
2023-01-29T16:57:57.755Z,42.73
2023-01-29T17:01:11.342Z,50.73
2023-01-29T17:04:21.770Z,55.02
2023-01-29T17:07:32.627Z,41.17
2023-01-29T17:10:38.911Z,41.61
2023-01-29T17:13:49.028Z,38.94
2023-01-29T17:16:59.601Z,38.92
2023-01-29T17:20:18.556Z,38.85
2023-01-29T17:23:26.951Z,36.39
2023-01-29T17:26:35.209Z,36.37
2023-01-29T17:29:41.781Z,35.59
2023-01-29T17:32:48.566Z,35.18
2023-01-29T17:35:57.080Z,32.59
2023-01-29T17:39:17.967Z,33.99
2023-01-29T17:42:23.637Z,34.69
2023-01-29T17:45:30.586Z,38.01
2023-01-29T17:48:36.394Z,38.43
2023-01-29T17:51:44.966Z,41.62
2023-01-29T17:54:53.328Z,42.88
2023-01-29T17:58:00.256Z,43.59
2023-01-29T18:01:06.123Z,42.99
2023-01-29T18:04:12.973Z,42.10
2023-01-29T18:07:18.930Z,42.10
2023-01-29T18:10:28.614Z,42.89
2023-01-29T18:13:36.308Z,45.33
2023-01-29T18:16:43.172Z,44.96
2023-01-29T18:19:51.207Z,43.79
2023-01-29T18:22:58.030Z,42.15
2023-01-29T18:26:07.945Z,39.92
2023-01-29T18:29:14.733Z,40.39
2023-01-29T18:32:20.534Z,42.10
2023-01-29T18:35:30.574Z,40.51
2023-01-29T18:38:36.600Z,42.61
2023-01-29T18:41:45.909Z,43.28
2023-01-29T18:44:52.030Z,45.31
2023-01-29T18:47:58.930Z,46.21
2023-01-29T18:51:05.057Z,43.75
2023-01-29T18:54:15.667Z,43.43
2023-01-29T18:58:29.356Z,45.57
2023-01-29T19:00:51.061Z,46.78
2023-01-29T19:03:59.365Z,46.74
2023-01-29T19:07:07.709Z,45.32
2023-01-29T19:10:17.274Z,46.24
2023-01-29T19:13:27.074Z,46.29
2023-01-29T19:16:33.086Z,51.18
2023-01-29T19:19:39.667Z,59.62
2023-01-29T19:22:45.631Z,57.73
2023-01-29T19:25:52.451Z,57.46
2023-01-29T19:29:01.178Z,55.50
2023-01-29T19:32:09.070Z,52.46
2023-01-29T19:35:15.134Z,48.55
2023-01-29T19:38:21.933Z,44.89
2023-01-29T19:41:28.007Z,43.79
2023-01-29T19:44:39.096Z,43.94
2023-01-29T19:47:46.778Z,44.29
2023-01-29T19:50:58.249Z,45.55
2023-01-29T19:54:04.336Z,46.13
2023-01-29T19:57:11.335Z,50.54
2023-01-29T20:00:24.035Z,51.58
2023-01-29T20:03:32.164Z,47.54
2023-01-29T20:06:38.242Z,48.36
2023-01-29T20:09:45.008Z,48.44
2023-01-29T20:12:51.004Z,48.15
2023-01-29T20:16:03.131Z,48.40
2023-01-29T20:19:14.269Z,49.78
2023-01-29T20:22:21.648Z,51.54
2023-01-29T20:25:27.616Z,50.71
2023-01-29T20:28:38.139Z,51.11
2023-01-29T20:31:53.899Z,51.82
2023-01-29T20:35:00.614Z,51.80
2023-01-29T20:38:08.372Z,55.53
2023-01-29T20:41:19.427Z,50.83
2023-01-29T20:44:25.389Z,47.32
2023-01-29T20:47:36.645Z,45.14
2023-01-29T20:50:44.266Z,45.49
2023-01-29T20:53:51.932Z,47.22
2023-01-29T20:56:58.119Z,48.45
2023-01-29T21:00:05.346Z,47.35
2023-01-29T21:03:14.160Z,52.79
2023-01-29T21:06:22.740Z,48.47
2023-01-29T21:09:28.615Z,48.35
2023-01-29T21:12:38.198Z,48.29
2023-01-29T21:15:46.995Z,47.09
2023-01-29T21:18:59.699Z,46.98
2023-01-29T21:22:07.118Z,47.56
2023-01-29T21:25:15.032Z,46.36
2023-01-29T21:28:22.177Z,46.29
2023-01-29T21:31:28.868Z,46.10
2023-01-29T21:34:37.599Z,48.79
2023-01-29T21:37:45.167Z,47.42
2023-01-29T21:40:51.263Z,49.59
2023-01-29T21:43:58.161Z,48.50
2023-01-29T21:47:12.564Z,52.79
2023-01-29T21:50:23.541Z,52.76
2023-01-29T21:53:29.757Z,47.51
2023-01-29T21:56:36.587Z,43.15
2023-01-29T21:59:42.510Z,40.93
2023-01-29T22:02:51.415Z,39.62
2023-01-29T22:06:00.011Z,39.06
2023-01-29T22:09:09.644Z,38.46
2023-01-29T22:12:15.617Z,38.21
2023-01-29T22:15:23.876Z,41.08
2023-01-29T22:18:30.570Z,41.65
2023-01-29T22:21:40.065Z,38.82
2023-01-29T22:24:46.804Z,35.90
2023-01-29T22:27:53.509Z,35.68
2023-01-29T22:31:04.827Z,36.32
2023-01-29T22:34:12.897Z,34.78
2023-01-29T22:37:21.406Z,34.10
2023-01-29T22:40:28.127Z,34.43
2023-01-29T22:43:34.171Z,33.24
2023-01-29T22:46:40.873Z,32.90
2023-01-29T22:49:50.193Z,32.03
2023-01-29T22:52:59.551Z,32.69
2023-01-29T22:56:05.526Z,32.39
2023-01-29T22:59:13.902Z,32.25
2023-01-29T23:02:19.696Z,32.90
2023-01-29T23:05:26.454Z,34.26
2023-01-29T23:08:36.254Z,33.26
2023-01-29T23:11:42.809Z,34.05
2023-01-29T23:14:48.711Z,33.36
2023-01-29T23:17:55.322Z,33.60
2023-01-29T23:21:01.274Z,34.82
2023-01-29T23:24:13.209Z,33.68
2023-01-29T23:27:19.183Z,33.83
2023-01-29T23:30:25.802Z,34.46
2023-01-29T23:33:31.909Z,34.34
2023-01-29T23:36:38.485Z,34.09
2023-01-29T23:39:46.909Z,34.17
2023-01-29T23:42:56.173Z,33.42
2023-01-29T23:46:02.514Z,32.03
2023-01-29T23:49:09.314Z,30.91
2023-01-29T23:52:15.186Z,30.26
2023-01-29T23:55:24.581Z,29.65
2023-01-29T23:58:31.903Z,29.87
